createdAt,value
2023-04-02T00:02:21.961Z,11.40
2023-04-02T00:05:19.620Z,13.60
2023-04-02T00:07:50.425Z,12.20
2023-04-02T00:10:37.960Z,10.20
2023-04-02T00:13:34.271Z,13.90
2023-04-02T00:16:06.818Z,13.90
2023-04-02T00:18:40.378Z,12.00
2023-04-02T00:21:20.707Z,12.00
2023-04-02T00:23:48.930Z,11.50
2023-04-02T00:26:28.985Z,9.10
2023-04-02T00:28:58.893Z,10.50
2023-04-02T00:31:27.621Z,11.40
2023-04-02T00:33:56.382Z,13.00
2023-04-02T00:36:26.783Z,13.50
2023-04-02T00:38:58.027Z,13.00
2023-04-02T00:41:30.891Z,11.70
2023-04-02T00:44:01.051Z,12.60
2023-04-02T00:46:47.472Z,12.70
2023-04-02T00:49:32.733Z,15.60
2023-04-02T00:52:04.859Z,16.60
2023-04-02T00:54:41.212Z,12.70
2023-04-02T00:57:18.095Z,12.30
2023-04-02T01:00:08.677Z,12.40
2023-04-02T01:02:38.587Z,14.30
2023-04-02T01:05:16.807Z,14.70
2023-04-02T01:08:18.804Z,12.00
2023-04-02T01:11:01.761Z,11.40
2023-04-02T01:13:53.454Z,10.10
2023-04-02T01:16:30.925Z,11.10
2023-04-02T01:19:21.115Z,13.50
2023-04-02T01:22:20.658Z,15.40
2023-04-02T01:24:49.533Z,11.00
2023-04-02T01:27:24.933Z,12.90
2023-04-02T01:29:56.839Z,11.10
2023-04-02T01:32:28.279Z,11.70
2023-04-02T01:34:58.380Z,16.40
2023-04-02T01:37:32.507Z,12.60
2023-04-02T01:40:10.012Z,18.70
2023-04-02T01:42:42.547Z,13.40
2023-04-02T01:45:17.272Z,14.60
2023-04-02T01:47:46.541Z,16.90
2023-04-02T01:50:31.704Z,12.90
2023-04-02T01:53:04.059Z,17.80
2023-04-02T01:55:55.001Z,11.80
2023-04-02T01:58:26.508Z,10.30
2023-04-02T02:01:08.497Z,13.40
2023-04-02T02:03:39.001Z,11.20
2023-04-02T02:06:07.241Z,13.80
2023-04-02T02:08:52.552Z,13.20
2023-04-02T02:13:57.500Z,17.20
2023-04-02T02:16:27.600Z,12.60
2023-04-02T02:19:02.623Z,13.00
2023-04-02T02:21:43.914Z,13.20
2023-04-02T02:24:22.855Z,12.40
2023-04-02T02:27:23.036Z,13.70
2023-04-02T02:29:58.548Z,11.00
2023-04-02T02:32:32.846Z,12.10
2023-04-02T02:35:00.834Z,13.10
2023-04-02T02:37:35.898Z,10.90
2023-04-02T02:40:08.517Z,11.20
2023-04-02T02:42:44.431Z,10.20
2023-04-02T02:45:21.898Z,10.00
2023-04-02T02:47:52.197Z,11.90
2023-04-02T02:50:26.477Z,10.60
2023-04-02T02:52:58.619Z,13.70
2023-04-02T02:58:19.578Z,12.50
2023-04-02T03:01:10.808Z,9.80
2023-04-02T03:03:40.768Z,10.10
2023-04-02T03:06:16.865Z,11.00
2023-04-02T03:09:31.562Z,12.30
2023-04-02T03:12:29.860Z,13.40
2023-04-02T03:15:06.361Z,9.80
2023-04-02T03:17:46.122Z,11.60
2023-04-02T03:20:46.913Z,8.70
2023-04-02T03:23:22.255Z,8.10
2023-04-02T03:28:26.268Z,8.50
2023-04-02T03:31:26.621Z,8.80
2023-04-02T03:34:04.543Z,7.70
2023-04-02T03:36:49.124Z,8.00
2023-04-02T03:39:39.127Z,9.80
2023-04-02T03:42:16.265Z,11.00
2023-04-02T03:45:21.448Z,11.30
2023-04-02T03:47:56.015Z,10.30
2023-04-02T03:50:37.928Z,8.90
2023-04-02T03:53:06.460Z,9.60
2023-04-02T03:55:38.090Z,10.80
2023-04-02T03:58:10.066Z,11.40
2023-04-02T04:00:44.446Z,12.40
2023-04-02T04:03:20.162Z,9.20
2023-04-02T04:05:57.483Z,9.00
2023-04-02T04:08:33.257Z,12.50
2023-04-02T04:11:07.348Z,12.10
2023-04-02T04:13:57.637Z,9.70
2023-04-02T04:16:36.107Z,10.70
2023-04-02T04:19:24.299Z,8.80
2023-04-02T04:21:57.315Z,10.30
2023-04-02T04:24:27.950Z,6.70
2023-04-02T04:27:09.724Z,8.50
2023-04-02T04:30:06.335Z,9.60
2023-04-02T04:35:45.693Z,10.70
2023-04-02T04:40:55.761Z,8.20
2023-04-02T04:43:50.719Z,9.10
2023-04-02T04:46:26.240Z,6.90
2023-04-02T04:49:14.325Z,8.60
2023-04-02T04:51:52.236Z,8.30
2023-04-02T04:54:20.935Z,12.70
2023-04-02T04:56:55.886Z,7.70
2023-04-02T04:59:30.932Z,8.10
2023-04-02T05:02:15.186Z,8.10
2023-04-02T05:04:49.710Z,11.50
2023-04-02T05:07:27.893Z,8.70
2023-04-02T05:10:09.421Z,7.70
2023-04-02T05:12:54.963Z,8.20
2023-04-02T05:15:39.293Z,10.40
2023-04-02T05:18:17.772Z,7.10
2023-04-02T05:20:52.148Z,10.40
2023-04-02T05:23:28.493Z,7.50
2023-04-02T05:26:15.356Z,12.40
2023-04-02T05:28:51.227Z,11.20
2023-04-02T05:31:26.269Z,7.60
2023-04-02T05:36:28.094Z,9.90
2023-04-02T05:38:59.899Z,10.90
2023-04-02T05:41:47.749Z,12.20
2023-04-02T05:44:33.606Z,8.50
2023-04-02T05:47:14.335Z,8.90
2023-04-02T05:49:49.197Z,8.50
2023-04-02T05:52:25.796Z,9.30
2023-04-02T05:54:56.836Z,12.30
2023-04-02T05:57:46.837Z,9.90
2023-04-02T06:00:39.597Z,12.90
2023-04-02T06:03:24.643Z,9.10
2023-04-02T06:05:59.621Z,8.10
2023-04-02T06:08:36.654Z,8.90
2023-04-02T06:11:11.573Z,13.00
2023-04-02T06:13:41.655Z,8.80
2023-04-02T06:16:14.788Z,10.40
2023-04-02T06:18:43.856Z,8.50
2023-04-02T06:21:16.883Z,7.50
2023-04-02T06:23:57.110Z,11.80
2023-04-02T06:26:45.058Z,8.90
2023-04-02T06:29:22.819Z,10.50
2023-04-02T06:31:54.492Z,8.70
2023-04-02T06:34:27.904Z,9.80
2023-04-02T06:37:21.326Z,9.20
2023-04-02T06:39:50.553Z,8.40
2023-04-02T06:42:24.743Z,12.90
2023-04-02T06:45:02.982Z,13.40
2023-04-02T06:47:51.597Z,9.40
2023-04-02T06:50:46.346Z,10.40
2023-04-02T06:53:24.180Z,8.90
2023-04-02T06:56:18.820Z,13.60
2023-04-02T06:58:47.351Z,8.40
2023-04-02T07:01:22.412Z,10.60
2023-04-02T07:03:51.281Z,8.50
2023-04-02T07:06:24.993Z,10.80
2023-04-02T07:08:54.844Z,7.20
2023-04-02T07:11:24.359Z,9.50
2023-04-02T07:13:54.984Z,9.90
2023-04-02T07:16:26.565Z,10.30
2023-04-02T07:18:56.304Z,12.30
2023-04-02T07:21:26.824Z,9.30
2023-04-02T07:23:55.616Z,11.40
2023-04-02T07:26:27.455Z,10.50
2023-04-02T07:28:56.388Z,6.90
2023-04-02T07:31:27.228Z,9.90
2023-04-02T07:33:59.932Z,9.20
2023-04-02T07:36:29.643Z,9.40
2023-04-02T07:38:58.258Z,9.50
2023-04-02T07:41:26.631Z,5.50
2023-04-02T07:43:54.898Z,6.90
2023-04-02T07:46:23.474Z,8.00
2023-04-02T07:48:51.486Z,7.10
2023-04-02T07:51:22.756Z,11.90
2023-04-02T07:53:55.122Z,7.50
2023-04-02T07:56:24.949Z,6.10
2023-04-02T07:58:52.976Z,7.80
2023-04-02T08:01:24.504Z,6.60
2023-04-02T08:03:56.813Z,5.40
2023-04-02T08:06:26.093Z,6.20
2023-04-02T08:08:54.558Z,5.40
2023-04-02T08:11:22.931Z,8.60
2023-04-02T08:13:52.235Z,6.40
2023-04-02T08:16:20.187Z,6.20
2023-04-02T08:18:48.164Z,7.40
2023-04-02T08:21:16.837Z,3.60
2023-04-02T08:23:45.380Z,8.00
2023-04-02T08:26:18.940Z,4.70
2023-04-02T08:28:47.058Z,5.20
2023-04-02T08:31:15.185Z,10.80
2023-04-02T08:33:43.225Z,8.90
2023-04-02T08:36:19.240Z,14.70
2023-04-02T08:38:47.313Z,6.50
2023-04-02T08:41:44.436Z,7.30
2023-04-02T08:44:22.594Z,4.80
2023-04-02T08:47:09.925Z,6.50
2023-04-02T08:49:44.935Z,6.10
2023-04-02T08:52:28.892Z,11.10
2023-04-02T08:55:02.875Z,5.80
2023-04-02T08:58:20.617Z,10.90
2023-04-02T09:00:53.700Z,8.10
2023-04-02T09:03:30.088Z,8.00
2023-04-02T09:05:59.992Z,7.60
2023-04-02T09:08:32.021Z,6.40
2023-04-02T09:11:07.323Z,6.40
2023-04-02T09:13:41.135Z,6.10
2023-04-02T09:16:13.451Z,8.60
2023-04-02T09:18:43.534Z,8.50
2023-04-02T09:21:20.948Z,6.90
2023-04-02T09:23:50.250Z,10.50
2023-04-02T09:26:29.249Z,5.10
2023-04-02T09:29:12.535Z,5.50
2023-04-02T09:31:45.160Z,6.50
2023-04-02T09:34:34.446Z,4.50
2023-04-02T09:37:18.712Z,5.40
2023-04-02T09:39:47.015Z,4.70
2023-04-02T09:42:38.277Z,6.00
2023-04-02T09:45:23.816Z,5.50
2023-04-02T09:47:54.263Z,4.90
2023-04-02T09:50:22.135Z,5.40
2023-04-02T09:52:50.637Z,7.30
2023-04-02T09:55:18.919Z,7.30
2023-04-02T09:57:49.027Z,8.00
2023-04-02T10:03:21.610Z,4.90
2023-04-02T10:06:03.680Z,7.50
2023-04-02T10:08:32.799Z,6.00
2023-04-02T10:11:04.134Z,5.70
2023-04-02T10:13:54.769Z,6.10
2023-04-02T10:16:33.291Z,6.40
2023-04-02T10:19:30.866Z,4.70
2023-04-02T10:22:03.335Z,3.40
2023-04-02T10:24:31.658Z,5.20
2023-04-02T10:26:59.710Z,7.70
2023-04-02T10:29:49.362Z,8.90
2023-04-02T10:32:32.436Z,5.00
2023-04-02T10:35:28.528Z,7.00
2023-04-02T10:38:11.215Z,8.60
2023-04-02T10:40:46.001Z,5.10
2023-04-02T10:43:26.253Z,5.00
2023-04-02T10:46:03.696Z,8.70
2023-04-02T10:49:00.107Z,3.70
2023-04-02T10:51:43.380Z,4.80
2023-04-02T10:54:19.593Z,4.50
2023-04-02T10:56:51.323Z,11.30
2023-04-02T10:59:29.811Z,5.80
2023-04-02T11:02:02.133Z,7.90
2023-04-02T11:04:41.727Z,5.70
2023-04-02T11:07:23.885Z,5.00
2023-04-02T11:09:56.537Z,4.60
2023-04-02T11:12:56.880Z,8.30
2023-04-02T11:15:26.103Z,5.70
2023-04-02T11:17:54.917Z,5.30
2023-04-02T11:20:48.534Z,5.10
2023-04-02T11:23:21.122Z,4.80
2023-04-02T11:25:49.374Z,8.10
2023-04-02T11:28:28.314Z,8.00
2023-04-02T11:30:57.400Z,4.50
2023-04-02T11:33:38.161Z,5.70
2023-04-02T11:36:45.287Z,4.40
2023-04-02T11:39:17.456Z,4.70
2023-04-02T11:42:22.326Z,4.40
2023-04-02T11:44:50.705Z,5.20
2023-04-02T11:47:27.101Z,4.00
2023-04-02T11:49:55.473Z,3.90
2023-04-02T11:52:29.561Z,4.30
2023-04-02T11:55:01.833Z,4.30
2023-04-02T11:57:50.967Z,11.30
2023-04-02T12:01:15.039Z,4.90
2023-04-02T12:04:11.144Z,3.00
2023-04-02T12:07:04.121Z,3.10
2023-04-02T12:09:49.958Z,2.70
2023-04-02T12:14:56.037Z,3.70
2023-04-02T12:17:37.376Z,7.30
2023-04-02T12:20:09.294Z,9.30
2023-04-02T12:22:47.781Z,4.80
2023-04-02T12:25:18.635Z,4.30
2023-04-02T12:27:48.014Z,4.30
2023-04-02T12:30:21.557Z,6.20
2023-04-02T12:32:50.493Z,4.50
2023-04-02T12:35:32.514Z,2.80
2023-04-02T12:38:01.291Z,3.40
2023-04-02T12:40:29.412Z,3.70
2023-04-02T12:42:57.571Z,4.50
2023-04-02T12:45:29.839Z,4.40
2023-04-02T12:48:02.950Z,4.70
2023-04-02T12:50:32.658Z,3.00
2023-04-02T12:53:01.532Z,4.70
2023-04-02T12:55:30.713Z,4.60
2023-04-02T12:58:00.052Z,4.00
2023-04-02T13:00:33.199Z,5.10
2023-04-02T13:03:20.436Z,3.00
2023-04-02T13:05:50.946Z,4.90
2023-04-02T13:08:41.718Z,7.70
2023-04-02T13:11:10.113Z,4.30
2023-04-02T13:13:40.809Z,2.90
2023-04-02T13:16:15.082Z,3.60
2023-04-02T13:18:45.812Z,3.30
2023-04-02T13:21:16.727Z,3.40
2023-04-02T13:23:46.197Z,5.40
2023-04-02T13:26:27.718Z,9.10
2023-04-02T13:28:59.668Z,3.40
2023-04-02T13:31:29.851Z,5.30
2023-04-02T13:33:58.970Z,3.30
2023-04-02T13:36:29.609Z,3.70
2023-04-02T13:38:57.718Z,3.90
2023-04-02T13:41:28.922Z,5.80
2023-04-02T13:44:02.365Z,5.70
2023-04-02T13:46:33.927Z,6.30
2023-04-02T13:49:02.169Z,9.90
2023-04-02T13:51:40.092Z,4.60
2023-04-02T13:54:18.491Z,8.20
2023-04-02T13:56:46.890Z,3.60
2023-04-02T13:59:15.323Z,3.20
2023-04-02T14:01:46.471Z,4.10
2023-04-02T14:04:23.394Z,3.90
2023-04-02T14:07:26.222Z,4.20
2023-04-02T14:10:20.680Z,4.10
2023-04-02T14:13:01.972Z,6.70
2023-04-02T14:16:02.282Z,6.40
2023-04-02T14:19:10.239Z,4.00
2023-04-02T14:22:03.043Z,3.60
2023-04-02T14:24:49.683Z,4.20
2023-04-02T14:27:36.974Z,4.50
2023-04-02T14:30:12.099Z,3.90
2023-04-02T14:33:07.089Z,4.50
2023-04-02T14:35:44.322Z,4.90
2023-04-02T14:38:31.532Z,4.40
2023-04-02T14:41:10.859Z,5.10
2023-04-02T14:43:50.593Z,4.00
2023-04-02T14:46:18.502Z,4.40
2023-04-02T14:49:00.545Z,6.40
2023-04-02T14:51:43.894Z,4.70
2023-04-02T14:54:23.972Z,4.20
2023-04-02T14:57:18.970Z,5.80
2023-04-02T15:00:08.476Z,7.00
2023-04-02T15:02:40.501Z,11.00
2023-04-02T15:05:18.615Z,11.00
2023-04-02T15:07:55.332Z,4.60
2023-04-02T15:10:39.876Z,5.30
2023-04-02T15:13:21.804Z,4.30
2023-04-02T15:15:56.994Z,4.00
2023-04-02T15:18:25.698Z,3.90
2023-04-02T15:21:14.654Z,4.60
2023-04-02T15:23:52.730Z,3.10
2023-04-02T15:26:26.592Z,6.40
2023-04-02T15:29:13.245Z,4.70
2023-04-02T15:31:47.588Z,4.00
2023-04-02T15:34:21.753Z,3.90
2023-04-02T15:37:19.876Z,5.40
2023-04-02T15:40:03.631Z,3.90
2023-04-02T15:42:39.081Z,4.20
2023-04-02T15:48:08.933Z,3.90
2023-04-02T15:50:52.615Z,6.60
2023-04-02T15:53:54.902Z,4.20
2023-04-02T15:56:43.735Z,4.50
2023-04-02T15:59:43.269Z,3.80
2023-04-02T16:02:23.215Z,5.50
2023-04-02T16:05:06.547Z,5.30
2023-04-02T16:07:48.054Z,5.40
2023-04-02T16:10:37.890Z,4.10
2023-04-02T16:13:19.938Z,5.60
2023-04-02T16:16:23.083Z,4.50
2023-04-02T16:19:25.458Z,6.00
2023-04-02T16:22:11.892Z,4.70
2023-04-02T16:24:39.741Z,5.10
2023-04-02T16:27:35.909Z,5.10
2023-04-02T16:33:22.573Z,6.10
2023-04-02T16:36:12.055Z,4.60
2023-04-02T16:38:50.599Z,5.10
2023-04-02T16:41:27.562Z,6.90
2023-04-02T16:43:59.432Z,9.50
2023-04-02T16:46:40.300Z,5.10
2023-04-02T16:49:21.067Z,5.20
2023-04-02T16:52:09.147Z,10.80
2023-04-02T16:54:47.673Z,5.80
2023-04-02T16:57:19.074Z,7.10
2023-04-02T16:59:56.316Z,11.00
2023-04-02T17:02:54.753Z,8.60
2023-04-02T17:05:31.873Z,4.60
2023-04-02T17:08:41.406Z,3.70
2023-04-02T17:11:24.067Z,6.40
2023-04-02T17:14:07.604Z,5.40
2023-04-02T17:16:42.371Z,5.40
2023-04-02T17:19:12.938Z,4.40
2023-04-02T17:21:45.548Z,5.70
2023-04-02T17:24:14.552Z,5.00
2023-04-02T17:26:47.844Z,3.50
2023-04-02T17:29:25.975Z,2.90
2023-04-02T17:32:01.420Z,4.40
2023-04-02T17:34:30.846Z,3.40
2023-04-02T17:37:07.472Z,7.30
2023-04-02T17:39:47.340Z,2.60
2023-04-02T17:42:28.472Z,2.30
2023-04-02T17:45:02.479Z,7.20
2023-04-02T17:47:43.357Z,3.70
2023-04-02T17:50:17.433Z,3.40
2023-04-02T17:53:05.710Z,3.50
2023-04-02T17:55:52.495Z,4.90
2023-04-02T17:58:39.519Z,8.70
2023-04-02T18:01:30.932Z,2.70
2023-04-02T18:04:08.253Z,4.00
2023-04-02T18:06:38.112Z,4.60
2023-04-02T18:09:31.349Z,1.70
2023-04-02T18:12:13.396Z,2.70
2023-04-02T18:15:03.135Z,3.90
2023-04-02T18:17:47.599Z,4.10
2023-04-02T18:20:39.630Z,3.20
2023-04-02T18:23:29.044Z,4.70
2023-04-02T18:26:14.413Z,3.20
2023-04-02T18:29:03.063Z,3.10
2023-04-02T18:31:59.499Z,5.20
2023-04-02T18:37:17.197Z,6.00
2023-04-02T18:40:22.167Z,4.00
2023-04-02T18:43:23.157Z,3.90
2023-04-02T18:46:05.767Z,5.40
2023-04-02T18:48:34.049Z,3.80
2023-04-02T18:51:02.399Z,6.20
2023-04-02T18:53:32.794Z,7.60
2023-04-02T18:56:08.199Z,4.00
2023-04-02T18:58:47.114Z,6.70
2023-04-02T19:01:30.880Z,4.40
2023-04-02T19:04:22.636Z,7.00
2023-04-02T19:07:02.946Z,5.10
2023-04-02T19:09:35.298Z,4.50
2023-04-02T19:12:18.651Z,7.00
2023-04-02T19:14:51.933Z,4.40
2023-04-02T19:17:37.560Z,5.00
2023-04-02T19:20:34.729Z,7.40
2023-04-02T19:23:03.254Z,5.30
2023-04-02T19:25:51.339Z,6.30
2023-04-02T19:28:34.090Z,7.20
2023-04-02T19:31:39.730Z,7.40
2023-04-02T19:34:29.801Z,7.50
2023-04-02T19:37:09.668Z,6.00
2023-04-02T19:39:47.013Z,8.80
2023-04-02T19:42:39.196Z,8.00
2023-04-02T19:45:20.647Z,8.60
2023-04-02T19:47:48.829Z,7.80
2023-04-02T19:50:17.056Z,7.20
2023-04-02T19:52:45.118Z,9.90
2023-04-02T19:55:13.369Z,8.50
2023-04-02T19:57:41.315Z,6.50
2023-04-02T20:00:14.074Z,6.10
2023-04-02T20:02:42.006Z,5.10
2023-04-02T20:05:10.862Z,3.70
2023-04-02T20:07:39.205Z,6.50
2023-04-02T20:10:08.053Z,4.60
2023-04-02T20:12:36.311Z,5.10
2023-04-02T20:15:05.483Z,6.10
2023-04-02T20:17:33.544Z,5.30
2023-04-02T20:20:01.498Z,5.50
2023-04-02T20:22:29.641Z,5.90
2023-04-02T20:24:57.656Z,7.50
2023-04-02T20:27:25.627Z,7.10
2023-04-02T20:29:53.568Z,6.90
2023-04-02T20:32:21.777Z,4.80
2023-04-02T20:34:49.925Z,5.70
2023-04-02T20:37:17.972Z,4.70
2023-04-02T20:39:46.241Z,4.90
2023-04-02T20:42:14.516Z,4.70
2023-04-02T20:44:42.500Z,4.50
2023-04-02T20:47:11.186Z,4.70
2023-04-02T20:49:39.167Z,4.70
2023-04-02T20:52:07.100Z,6.40
2023-04-02T20:54:35.081Z,4.50
2023-04-02T20:57:03.651Z,5.50
2023-04-02T20:59:31.743Z,4.20
2023-04-02T21:01:59.843Z,5.60
2023-04-02T21:04:28.919Z,5.30
2023-04-02T21:06:57.628Z,4.00
2023-04-02T21:09:25.948Z,4.10
2023-04-02T21:11:53.987Z,7.80
2023-04-02T21:14:22.234Z,4.60
2023-04-02T21:16:50.500Z,4.90
2023-04-02T21:19:18.480Z,5.30
2023-04-02T21:21:46.749Z,5.70
2023-04-02T21:24:14.713Z,4.40
2023-04-02T21:26:42.680Z,5.40
2023-04-02T21:29:11.957Z,5.30
2023-04-02T21:31:41.299Z,5.40
2023-04-02T21:34:14.424Z,8.80
2023-04-02T21:36:45.415Z,6.40
2023-04-02T21:39:18.809Z,5.00
2023-04-02T21:41:50.100Z,5.60
2023-04-02T21:44:20.867Z,6.10
2023-04-02T21:46:51.671Z,6.00
2023-04-02T21:49:22.936Z,7.00
2023-04-02T21:51:51.862Z,6.00
2023-04-02T21:54:19.837Z,5.20
2023-04-02T21:56:48.775Z,4.80
2023-04-02T21:59:18.464Z,5.70
2023-04-02T22:01:49.202Z,5.70
2023-04-02T22:04:20.851Z,5.50
2023-04-02T22:06:49.364Z,5.90
2023-04-02T22:09:21.220Z,4.80
2023-04-02T22:11:52.916Z,12.20
2023-04-02T22:14:21.689Z,8.40
2023-04-02T22:16:49.744Z,4.40
2023-04-02T22:19:17.803Z,6.10
2023-04-02T22:21:46.332Z,6.40
2023-04-02T22:24:18.854Z,5.10
2023-04-02T22:26:47.063Z,6.20
2023-04-02T22:29:16.123Z,6.80
2023-04-02T22:31:44.326Z,6.50
2023-04-02T22:34:12.349Z,8.00
2023-04-02T22:36:41.443Z,7.40
2023-04-02T22:39:12.123Z,9.70
2023-04-02T22:41:40.590Z,9.20
2023-04-02T22:44:14.054Z,12.30
2023-04-02T22:46:41.991Z,9.50
2023-04-02T22:49:11.793Z,9.30
2023-04-02T22:51:39.871Z,9.10
2023-04-02T22:54:07.865Z,9.90
2023-04-02T22:56:37.662Z,10.10
2023-04-02T22:59:05.942Z,8.00
2023-04-02T23:01:35.716Z,8.30
2023-04-02T23:04:05.311Z,7.30
2023-04-02T23:06:33.546Z,7.40
2023-04-02T23:09:01.576Z,7.40
2023-04-02T23:11:29.575Z,8.40
2023-04-02T23:13:58.848Z,7.80
2023-04-02T23:16:29.399Z,7.20
2023-04-02T23:18:58.729Z,8.00
2023-04-02T23:21:27.464Z,8.90
2023-04-02T23:23:55.999Z,8.50
2023-04-02T23:26:29.703Z,7.80
2023-04-02T23:28:59.730Z,9.00
2023-04-02T23:31:28.724Z,9.00
2023-04-02T23:33:56.859Z,11.10
2023-04-02T23:36:33.935Z,8.60
2023-04-02T23:39:09.578Z,12.00
2023-04-02T23:41:39.935Z,9.80
2023-04-02T23:44:09.044Z,9.20
2023-04-02T23:46:37.441Z,10.40
2023-04-02T23:49:05.880Z,10.10
2023-04-02T23:51:33.802Z,9.50
2023-04-02T23:54:01.900Z,9.50
2023-04-02T23:56:29.880Z,8.40
2023-04-02T23:58:57.832Z,10.60
